createdAt,value
2023-01-09T00:01:38.968Z,97919.06
2023-01-09T00:04:06.889Z,97921.69
2023-01-09T00:06:36.151Z,97918.81
2023-01-09T00:09:04.098Z,97902.50
2023-01-09T00:11:31.791Z,97908.97
2023-01-09T00:13:59.754Z,97904.69
2023-01-09T00:16:27.321Z,97903.06
2023-01-09T00:18:54.844Z,97905.28
2023-01-09T00:21:22.335Z,97904.28
2023-01-09T00:23:51.168Z,97905.06
2023-01-09T00:26:20.193Z,97906.75
2023-01-09T00:28:48.129Z,97899.88
2023-01-09T00:31:16.051Z,97892.31
2023-01-09T00:33:45.667Z,97885.75
2023-01-09T00:36:13.545Z,97892.16
2023-01-09T00:38:41.450Z,97888.63
2023-01-09T00:41:12.636Z,97883.22
2023-01-09T00:43:42.961Z,97883.41
2023-01-09T00:46:10.945Z,97884.47
2023-01-09T00:48:39.931Z,97883.06
2023-01-09T00:51:08.107Z,97878.97
2023-01-09T00:53:37.858Z,97877.34
2023-01-09T00:56:09.118Z,97879.22
2023-01-09T00:58:38.448Z,97887.16
2023-01-09T01:01:06.402Z,97885.72
2023-01-09T01:03:33.971Z,97887.94
2023-01-09T01:06:18.993Z,97885.72
2023-01-09T01:08:46.774Z,97885.88
2023-01-09T01:11:14.544Z,97888.97
2023-01-09T01:13:43.661Z,97887.56
2023-01-09T01:16:13.283Z,97887.78
2023-01-09T01:18:41.599Z,97892.84
2023-01-09T01:21:09.741Z,97896.13
2023-01-09T01:23:38.150Z,97895.50
2023-01-09T01:26:06.888Z,97899.00
2023-01-09T01:28:34.795Z,97887.63
2023-01-09T01:31:04.149Z,97888.41
2023-01-09T01:33:32.481Z,97902.13
2023-01-09T01:36:04.324Z,97903.88
2023-01-09T01:38:32.759Z,97889.25
2023-01-09T01:41:01.425Z,97903.53
2023-01-09T02:38:09.559Z,97888.88
2023-01-09T02:40:42.990Z,97880.16
2023-01-09T02:43:43.433Z,97877.88
2023-01-09T02:46:22.705Z,97878.94
2023-01-09T02:48:55.439Z,97874.66
2023-01-09T02:51:30.931Z,97866.94
2023-01-09T02:54:07.322Z,97879.56
2023-01-09T02:56:59.370Z,97866.34
2023-01-09T02:59:32.983Z,97869.16
2023-01-09T03:02:14.096Z,97862.88
2023-01-09T03:04:47.814Z,97865.72
2023-01-09T03:07:22.092Z,97851.50
2023-01-09T03:09:51.746Z,97862.28
2023-01-09T03:12:24.750Z,97853.31
2023-01-09T03:14:54.697Z,97853.53
2023-01-09T03:17:28.606Z,97866.53
2023-01-09T03:19:58.009Z,97853.72
2023-01-09T03:22:26.377Z,97844.19
2023-01-09T03:24:54.767Z,97845.19
2023-01-09T03:27:24.442Z,97859.81
2023-01-09T03:29:53.456Z,97859.00
2023-01-09T03:32:21.574Z,97864.72
2023-01-09T03:34:49.587Z,97865.72
2023-01-09T03:37:20.516Z,97863.91
2023-01-09T03:39:51.030Z,97870.19
2023-01-09T03:42:20.913Z,97857.19
2023-01-09T03:44:52.059Z,97866.72
2023-01-09T03:47:20.379Z,97863.28
2023-01-09T03:49:48.529Z,97862.28
2023-01-09T03:52:16.726Z,97870.56
2023-01-09T03:54:44.846Z,97882.59
2023-01-09T03:57:13.070Z,97872.03
2023-01-09T03:59:41.239Z,97873.66
2023-01-09T04:02:10.905Z,97866.94
2023-01-09T04:04:42.305Z,97903.72
2023-01-09T04:07:10.693Z,97882.16
2023-01-09T04:09:38.791Z,97894.94
2023-01-09T04:12:09.444Z,97899.84
2023-01-09T04:14:40.265Z,97912.50
2023-01-09T04:17:16.667Z,97922.22
2023-01-09T04:19:45.031Z,97917.34
2023-01-09T04:22:12.976Z,97927.91
2023-01-09T04:24:40.901Z,97936.22
2023-01-09T04:27:08.889Z,97931.75
2023-01-09T04:29:37.004Z,97937.47
2023-01-09T04:32:05.440Z,97950.25
2023-01-09T04:34:35.088Z,97940.47
2023-01-09T04:37:03.393Z,97954.78
2023-01-09T04:39:31.856Z,97968.78
2023-01-09T04:41:59.809Z,97956.78
2023-01-09T04:44:27.619Z,97966.97
2023-01-09T04:46:56.145Z,97960.84
2023-01-09T04:49:23.985Z,97940.50
2023-01-09T04:51:53.105Z,97973.88
2023-01-09T04:54:20.978Z,97975.06
2023-01-09T04:56:48.777Z,97949.69
2023-01-09T04:59:16.477Z,97960.03
2023-01-09T05:01:44.129Z,97969.41
2023-01-09T05:04:12.996Z,97984.88
2023-01-09T05:06:40.665Z,97988.34
2023-01-09T05:09:09.562Z,97987.28
2023-01-09T05:11:39.023Z,97987.69
2023-01-09T05:14:06.560Z,97994.78
2023-01-09T05:16:34.138Z,98000.69
2023-01-09T05:19:01.709Z,97997.00
2023-01-09T05:21:29.330Z,97996.38
2023-01-09T05:23:56.870Z,98013.06
2023-01-09T05:26:25.995Z,98008.19
2023-01-09T05:28:54.073Z,98021.41
2023-01-09T05:31:21.689Z,98025.50
2023-01-09T05:33:49.353Z,98035.81
2023-01-09T05:36:16.980Z,98026.63
2023-01-09T05:38:44.576Z,98028.66
2023-01-09T05:41:12.468Z,98041.09
2023-01-09T05:43:41.389Z,98038.41
2023-01-09T05:46:08.936Z,98028.47
2023-01-09T05:48:37.717Z,98022.38
2023-01-09T05:51:05.356Z,98045.75
2023-01-09T05:53:32.971Z,98048.81
2023-01-09T05:56:00.532Z,98051.53
2023-01-09T05:58:28.087Z,98055.03
2023-01-09T06:00:56.933Z,98063.56
2023-01-09T06:03:24.475Z,98043.22
2023-01-09T06:05:52.445Z,98051.06
2023-01-09T06:08:19.941Z,98067.16
2023-01-09T06:10:47.889Z,98064.16
2023-01-09T06:13:15.362Z,98064.78
2023-01-09T06:15:43.023Z,98066.34
2023-01-09T06:18:11.863Z,98076.75
2023-01-09T06:20:39.335Z,98065.13
2023-01-09T06:23:06.824Z,98073.44
2023-01-09T06:25:34.401Z,98071.03
2023-01-09T06:28:01.959Z,98081.66
2023-01-09T06:30:29.447Z,98088.38
2023-01-09T06:32:56.920Z,98077.81
2023-01-09T06:35:25.820Z,98084.41
2023-01-09T06:37:53.282Z,98082.94
2023-01-09T06:40:21.134Z,98082.16
2023-01-09T06:42:49.641Z,98087.50
2023-01-09T06:45:17.456Z,98091.19
2023-01-09T06:47:45.013Z,98104.91
2023-01-09T06:50:12.786Z,98101.63
2023-01-09T06:52:41.584Z,98112.97
2023-01-09T06:55:09.908Z,98108.31
2023-01-09T06:57:37.545Z,98117.38
2023-01-09T07:00:06.176Z,98120.19
2023-01-09T07:02:33.789Z,98118.88
2023-01-09T07:05:01.267Z,98114.47
2023-01-09T07:07:28.743Z,98124.44
2023-01-09T07:09:57.526Z,98127.41
2023-01-09T07:12:25.086Z,98124.72
2023-01-09T07:14:52.597Z,98124.75
2023-01-09T07:17:20.026Z,98129.56
2023-01-09T07:19:47.558Z,98127.03
2023-01-09T07:22:15.095Z,98133.25
2023-01-09T07:24:44.238Z,98141.16
2023-01-09T07:27:13.047Z,98142.09
2023-01-09T07:29:40.525Z,98149.78
2023-01-09T07:32:08.094Z,98143.47
2023-01-09T07:34:35.590Z,98148.38
2023-01-09T07:37:03.044Z,98146.66
2023-01-09T07:39:30.580Z,98143.47
2023-01-09T07:41:58.059Z,98137.81
2023-01-09T07:44:28.131Z,98141.88
2023-01-09T07:46:55.595Z,98149.19
2023-01-09T07:49:23.848Z,98145.41
2023-01-09T07:51:52.422Z,98153.91
2023-01-09T07:54:19.891Z,98152.25
2023-01-09T07:56:47.500Z,98145.59
2023-01-09T07:59:15.070Z,98139.78
2023-01-09T08:01:44.125Z,98144.94
2023-01-09T08:04:11.636Z,98151.50
2023-01-09T08:06:39.158Z,98154.75
2023-01-09T08:09:06.628Z,98152.72
2023-01-09T08:11:35.293Z,98163.81
2023-01-09T08:14:03.818Z,98157.66
2023-01-09T08:16:31.286Z,98158.66
2023-01-09T08:19:00.314Z,98161.13
2023-01-09T08:21:27.757Z,98163.03
2023-01-09T08:23:55.282Z,98168.53
2023-01-09T08:26:22.988Z,98170.13
2023-01-09T08:28:50.424Z,98168.97
2023-01-09T08:31:17.984Z,98168.22
2023-01-09T08:33:45.725Z,98156.94
2023-01-09T08:36:14.731Z,98168.63
2023-01-09T08:38:42.212Z,98172.19
2023-01-09T08:41:23.659Z,98155.38
2023-01-09T08:44:08.444Z,98166.97
2023-01-09T08:46:54.146Z,98172.34
2023-01-09T08:49:22.504Z,98176.66
2023-01-09T08:51:51.286Z,98173.81
2023-01-09T08:54:18.787Z,98173.44
2023-01-09T08:56:46.243Z,98172.06
2023-01-09T08:59:13.732Z,98165.38
2023-01-09T09:01:41.338Z,98165.16
2023-01-09T09:04:08.910Z,98174.41
2023-01-09T09:06:36.580Z,98182.38
2023-01-09T09:09:06.710Z,98169.47
2023-01-09T09:11:35.941Z,98163.81
2023-01-09T09:14:25.700Z,98172.25
2023-01-09T09:16:53.315Z,98177.38
2023-01-09T09:19:20.924Z,98176.19
2023-01-09T09:21:48.496Z,98172.25
2023-01-09T09:24:17.301Z,98167.34
2023-01-09T09:26:44.929Z,98168.19
2023-01-09T09:29:13.001Z,98174.44
2023-01-09T09:31:40.490Z,98172.91
2023-01-09T09:34:08.542Z,98170.44
2023-01-09T09:36:36.089Z,98171.66
2023-01-09T09:39:03.877Z,98173.28
2023-01-09T09:42:01.802Z,98160.25
2023-01-09T09:44:53.847Z,98174.00
2023-01-09T09:47:32.572Z,98163.06
2023-01-09T09:50:07.588Z,98166.47
2023-01-09T09:52:40.527Z,98139.03
2023-01-09T09:55:19.831Z,98144.63
2023-01-09T09:57:49.469Z,98148.25
2023-01-09T10:00:19.956Z,98166.19
2023-01-09T10:02:51.682Z,98163.56
2023-01-09T10:05:22.105Z,98183.06
2023-01-09T10:07:51.391Z,98176.38
2023-01-09T10:10:26.224Z,98184.13
2023-01-09T10:12:57.072Z,98179.94
2023-01-09T10:15:38.274Z,98175.38
2023-01-09T10:18:14.400Z,98186.81
2023-01-09T10:20:55.370Z,98179.66
2023-01-09T10:23:38.705Z,98177.22
2023-01-09T10:26:12.862Z,98175.38
2023-01-09T10:29:06.831Z,98175.47
2023-01-09T10:31:40.129Z,98160.97
2023-01-09T10:34:15.411Z,98163.47
2023-01-09T10:37:06.259Z,98168.41
2023-01-09T10:39:39.385Z,98171.28
2023-01-09T10:42:12.303Z,98173.50
2023-01-09T10:44:47.002Z,98168.22
2023-01-09T10:47:18.456Z,98175.34
2023-01-09T10:49:47.216Z,98162.09
2023-01-09T10:52:18.049Z,98167.22
2023-01-09T10:54:51.246Z,98169.28
2023-01-09T10:57:28.756Z,98156.63
2023-01-09T10:59:57.673Z,98154.19
2023-01-09T11:02:28.925Z,98164.78
2023-01-09T11:04:56.436Z,98153.78
2023-01-09T11:07:25.867Z,98162.34
2023-01-09T11:09:57.655Z,98159.06
2023-01-09T11:12:26.490Z,98165.78
2023-01-09T11:14:54.002Z,98162.94
2023-01-09T11:17:27.275Z,98167.00
2023-01-09T11:20:14.991Z,98173.53
2023-01-09T11:22:44.372Z,98177.56
2023-01-09T11:25:14.443Z,98166.97
2023-01-09T11:27:42.215Z,98176.53
2023-01-09T11:30:21.158Z,98164.56
2023-01-09T11:32:50.128Z,98177.19
2023-01-09T11:35:23.645Z,98181.28
2023-01-09T11:37:59.899Z,98187.38
2023-01-09T11:40:27.583Z,98186.38
2023-01-09T11:43:06.726Z,98181.28
2023-01-09T11:45:35.834Z,98183.31
2023-01-09T11:48:17.498Z,98178.44
2023-01-09T11:50:54.707Z,98186.78
2023-01-09T11:53:22.779Z,98190.84
2023-01-09T11:56:06.872Z,98199.19
2023-01-09T11:58:35.505Z,98195.59
2023-01-09T12:01:12.734Z,98190.06
2023-01-09T12:03:55.619Z,98181.72
2023-01-09T12:06:31.418Z,98191.88
2023-01-09T12:09:02.303Z,98181.91
2023-01-09T12:11:34.154Z,98184.78
2023-01-09T12:14:18.386Z,98180.28
2023-01-09T12:16:59.236Z,98187.38
2023-01-09T12:19:48.663Z,98188.59
2023-01-09T12:22:23.768Z,98196.75
2023-01-09T12:25:07.896Z,98194.53
2023-01-09T12:27:49.968Z,98188.00
2023-01-09T12:30:27.429Z,98184.13
2023-01-09T12:33:04.483Z,98195.72
2023-01-09T12:35:37.204Z,98183.91
2023-01-09T12:38:23.782Z,98191.66
2023-01-09T12:41:06.831Z,98196.75
2023-01-09T12:43:40.544Z,98187.59
2023-01-09T12:46:16.361Z,98198.97
2023-01-09T12:48:59.218Z,98203.03
2023-01-09T12:51:32.761Z,98207.13
2023-01-09T12:54:03.289Z,98223.66
2023-01-09T12:56:34.082Z,98221.78
2023-01-09T12:59:02.932Z,98221.38
2023-01-09T13:04:35.228Z,98243.22
2023-01-09T13:07:07.246Z,98227.31
2023-01-09T13:42:06.249Z,98248.09
2023-01-09T13:44:37.570Z,98248.31
2023-01-09T13:47:06.313Z,98241.47
2023-01-09T13:50:21.977Z,98230.00
2023-01-09T13:52:52.712Z,98260.97
2023-01-09T13:55:27.099Z,98248.38
2023-01-09T13:58:22.784Z,98243.03
2023-01-09T14:01:04.441Z,98252.38
2023-01-09T14:03:35.395Z,98255.31
2023-01-09T14:06:24.459Z,98261.44
2023-01-09T14:09:12.753Z,98272.06
2023-01-09T14:11:42.082Z,98282.41
2023-01-09T14:14:24.180Z,98284.44
2023-01-09T14:16:51.915Z,98277.97
2023-01-09T14:19:27.397Z,98284.19
2023-01-09T14:21:56.788Z,98296.03
2023-01-09T14:24:28.552Z,98299.63
2023-01-09T14:26:58.000Z,98304.66
2023-01-09T14:29:44.647Z,98304.00
2023-01-09T14:32:46.332Z,98331.53
2023-01-09T14:35:17.733Z,98326.91
2023-01-09T14:37:57.375Z,98335.22
2023-01-09T14:40:24.933Z,98341.50
2023-01-09T14:42:55.066Z,98344.22
2023-01-09T14:45:26.850Z,98343.09
2023-01-09T14:47:56.546Z,98359.91
2023-01-09T14:50:30.850Z,98354.25
2023-01-09T14:53:03.831Z,98374.53
2023-01-09T14:55:36.727Z,98368.44
2023-01-09T14:58:19.208Z,98391.72
2023-01-09T15:00:54.205Z,98388.22
2023-01-09T15:03:22.405Z,98400.53
2023-01-09T15:05:51.586Z,98413.41
2023-01-09T15:08:21.603Z,98421.53
2023-01-09T15:10:50.445Z,98425.88
2023-01-09T15:13:32.672Z,98427.63
2023-01-09T15:16:01.915Z,98433.66
2023-01-09T15:18:31.653Z,98443.25
2023-01-09T15:21:01.443Z,98442.50
2023-01-09T15:23:30.354Z,98455.66
2023-01-09T15:25:58.842Z,98457.00
2023-01-09T15:28:30.623Z,98451.47
2023-01-09T15:31:03.412Z,98459.22
2023-01-09T15:33:30.959Z,98455.78
2023-01-09T15:36:02.357Z,98470.44
2023-01-09T15:38:32.442Z,98454.75
2023-01-09T15:41:01.520Z,98466.75
2023-01-09T15:43:30.423Z,98461.53
2023-01-09T15:45:58.718Z,98468.16
2023-01-09T15:48:29.731Z,98465.38
2023-01-09T15:50:59.201Z,98471.88
2023-01-09T15:53:28.225Z,98469.97
2023-01-09T15:56:08.001Z,98480.03
2023-01-09T15:58:36.929Z,98483.78
2023-01-09T16:01:06.392Z,98481.44
2023-01-09T16:03:37.367Z,98497.00
2023-01-09T16:06:08.640Z,98496.00
2023-01-09T16:08:38.302Z,98495.75
2023-01-09T16:11:08.264Z,98502.13
2023-01-09T16:13:43.060Z,98511.81
2023-01-09T16:16:10.975Z,98513.16
2023-01-09T16:18:40.597Z,98526.47
2023-01-09T16:21:24.055Z,98528.69
2023-01-09T16:23:57.343Z,98532.47
2023-01-09T16:26:27.067Z,98543.31
2023-01-09T16:28:55.227Z,98545.38
2023-01-09T16:31:26.013Z,98554.56
2023-01-09T16:34:04.295Z,98554.09
2023-01-09T16:36:31.842Z,98565.66
2023-01-09T16:39:00.768Z,98566.63
2023-01-09T16:41:45.964Z,98570.56
2023-01-09T16:44:13.453Z,98568.75
2023-01-09T16:46:44.046Z,98573.66
2023-01-09T16:49:20.629Z,98573.75
2023-01-09T16:51:48.853Z,98582.28
2023-01-09T16:54:16.770Z,98588.56
2023-01-09T16:56:46.460Z,98597.59
2023-01-09T16:59:14.878Z,98609.44
2023-01-09T17:01:43.392Z,98621.09
2023-01-09T17:04:12.120Z,98608.81
2023-01-09T17:06:41.707Z,98615.09
2023-01-09T17:09:12.323Z,98617.25
2023-01-09T17:11:41.026Z,98624.00
2023-01-09T17:14:09.783Z,98633.13
2023-01-09T17:16:37.707Z,98637.66
2023-01-09T17:19:05.842Z,98648.03
2023-01-09T17:21:33.449Z,98653.78
2023-01-09T17:24:19.896Z,98652.34
2023-01-09T17:27:07.684Z,98662.16
2023-01-09T17:29:35.603Z,98661.19
2023-01-09T17:32:03.272Z,98668.19
2023-01-09T17:34:30.816Z,98670.66
2023-01-09T17:36:58.367Z,98683.88
2023-01-09T17:39:27.252Z,98690.31
2023-01-09T17:41:56.631Z,98693.41
2023-01-09T17:44:24.111Z,98703.16
2023-01-09T17:46:51.574Z,98706.97
2023-01-09T17:49:21.261Z,98708.00
2023-01-09T17:51:49.020Z,98702.41
2023-01-09T17:54:16.666Z,98713.28
2023-01-09T17:56:47.405Z,98712.34
2023-01-09T17:59:15.949Z,98719.19
2023-01-09T18:01:44.342Z,98728.81
2023-01-09T18:04:12.246Z,98720.91
2023-01-09T18:06:39.722Z,98734.38
2023-01-09T18:09:07.809Z,98739.00
2023-01-09T18:11:37.318Z,98755.34
2023-01-09T18:14:07.006Z,98744.44
2023-01-09T18:16:35.098Z,98752.13
2023-01-09T18:19:03.313Z,98760.31
2023-01-09T18:21:31.901Z,98762.63
2023-01-09T18:24:01.271Z,98769.19
2023-01-09T18:26:28.815Z,98780.84
2023-01-09T18:28:58.049Z,98784.78
2023-01-09T18:31:27.749Z,98789.38
2023-01-09T18:33:57.039Z,98798.09
2023-01-09T18:36:29.125Z,98807.38
2023-01-09T18:38:57.415Z,98808.56
2023-01-09T18:41:25.259Z,98812.13
2023-01-09T18:43:54.023Z,98806.34
2023-01-09T18:46:24.480Z,98814.41
2023-01-09T18:48:54.050Z,98822.13
2023-01-09T18:51:22.392Z,98826.91
2023-01-09T18:53:50.091Z,98822.91
2023-01-09T18:56:19.014Z,98824.31
2023-01-09T18:58:46.728Z,98846.06
2023-01-09T19:01:14.751Z,98836.78
2023-01-09T19:03:42.505Z,98846.81
2023-01-09T19:06:11.667Z,98841.53
2023-01-09T19:08:39.202Z,98849.19
2023-01-09T19:11:06.810Z,98845.69
2023-01-09T19:13:35.621Z,98854.13
2023-01-09T19:16:03.959Z,98858.25
2023-01-09T19:18:33.890Z,98856.91
2023-01-09T19:21:01.708Z,98862.66
2023-01-09T19:23:30.560Z,98863.78
2023-01-09T19:25:58.119Z,98868.81
2023-01-09T19:28:25.666Z,98869.75
2023-01-09T19:30:56.879Z,98876.56
2023-01-09T19:33:25.205Z,98882.28
2023-01-09T19:35:53.211Z,98883.97
2023-01-09T19:38:22.372Z,98883.44
2023-01-09T19:40:51.548Z,98890.13
2023-01-09T19:43:26.533Z,98893.59
2023-01-09T19:45:54.616Z,98911.78
2023-01-09T19:48:22.213Z,98906.72
2023-01-09T19:50:49.702Z,98917.06
2023-01-09T19:53:17.295Z,98917.63
2023-01-09T19:55:44.741Z,98929.63
2023-01-09T19:58:13.523Z,98932.50
2023-01-09T20:00:41.034Z,98938.94
2023-01-09T20:03:08.475Z,98946.97
2023-01-09T20:05:35.963Z,98945.97
2023-01-09T20:08:06.221Z,98949.13
2023-01-09T20:10:34.499Z,98952.31
2023-01-09T20:13:02.110Z,98961.84
2023-01-09T20:15:31.607Z,98973.59
2023-01-09T20:17:59.690Z,98977.22
2023-01-09T20:20:27.100Z,98982.97
2023-01-09T20:22:54.546Z,98990.56
2023-01-09T20:25:22.032Z,99002.59
2023-01-09T20:27:49.527Z,99001.03
2023-01-09T20:30:17.514Z,99002.31
2023-01-09T20:32:49.223Z,98995.63
2023-01-09T20:35:16.945Z,99001.97
2023-01-09T20:37:44.419Z,99000.38
2023-01-09T20:40:12.216Z,99006.78
2023-01-09T20:42:39.709Z,99021.22
2023-01-09T20:45:08.236Z,99023.22
2023-01-09T20:47:35.749Z,99034.63
2023-01-09T20:50:05.319Z,99031.03
2023-01-09T20:52:32.856Z,99039.91
2023-01-09T20:55:00.294Z,99036.97
2023-01-09T20:57:27.882Z,99045.66
2023-01-09T20:59:55.357Z,99042.09
2023-01-09T21:02:22.851Z,99041.78
2023-01-09T21:04:50.506Z,99038.31
2023-01-09T21:07:19.354Z,99041.06
2023-01-09T21:09:47.029Z,99040.47
2023-01-09T21:12:28.483Z,99049.06
2023-01-09T21:14:56.149Z,99059.00
2023-01-09T21:17:24.058Z,99056.31
2023-01-09T21:19:51.510Z,99066.19
2023-01-09T21:22:20.477Z,99060.88
2023-01-09T21:24:49.622Z,99072.63
2023-01-09T21:27:17.149Z,99083.31
2023-01-09T21:29:45.203Z,99090.88
2023-01-09T21:32:12.765Z,99087.56
2023-01-09T21:34:40.372Z,99098.59
2023-01-09T21:37:07.931Z,99101.97
2023-01-09T21:39:37.030Z,99091.59
2023-01-09T21:42:22.535Z,99101.38
2023-01-09T21:45:06.826Z,99104.75
2023-01-09T21:47:34.385Z,99101.25
2023-01-09T21:50:01.820Z,99112.13
2023-01-09T21:52:29.261Z,99119.22
2023-01-09T21:54:58.487Z,99125.59
2023-01-09T21:57:25.910Z,99137.50
2023-01-09T21:59:53.419Z,99141.47
2023-01-09T22:02:20.876Z,99140.44
2023-01-09T22:04:48.990Z,99151.38
2023-01-09T22:07:16.650Z,99156.19
2023-01-09T22:09:45.641Z,99163.66
2023-01-09T22:12:15.106Z,99176.91
2023-01-09T22:14:43.272Z,99177.38
2023-01-09T22:17:11.702Z,99170.81
2023-01-09T22:19:39.884Z,99167.81
2023-01-09T22:22:08.639Z,99177.41
2023-01-09T22:24:36.888Z,99156.44
2023-01-09T22:27:05.354Z,99176.41
2023-01-09T22:29:35.211Z,99181.19
2023-01-09T22:32:03.628Z,99199.97
2023-01-09T22:34:34.606Z,99204.75
2023-01-09T22:37:03.026Z,99196.75
2023-01-09T22:39:30.865Z,99209.69
2023-01-09T22:41:59.078Z,99213.75
2023-01-09T22:44:27.168Z,99225.50
2023-01-09T22:46:57.252Z,99213.00
2023-01-09T22:49:26.506Z,99219.59
2023-01-09T22:51:57.844Z,99223.38
2023-01-09T22:54:25.473Z,99231.81
2023-01-09T22:56:53.405Z,99225.88
2023-01-09T22:59:21.450Z,99235.13
2023-01-09T23:01:49.231Z,99247.97
2023-01-09T23:04:18.217Z,99239.56
2023-01-09T23:06:46.197Z,99251.94
2023-01-09T23:09:13.900Z,99244.84
2023-01-09T23:12:04.188Z,99244.22
2023-01-09T23:14:33.471Z,99262.38
2023-01-09T23:17:01.041Z,99264.34
2023-01-09T23:19:31.561Z,99267.66
2023-01-09T23:21:59.994Z,99277.88
2023-01-09T23:24:28.479Z,99292.06
2023-01-09T23:26:56.627Z,99289.78
2023-01-09T23:29:24.519Z,99295.38
2023-01-09T23:31:53.648Z,99303.81
2023-01-09T23:34:23.964Z,99288.44
2023-01-09T23:36:54.252Z,99304.78
2023-01-09T23:39:21.917Z,99310.25
2023-01-09T23:42:06.918Z,99309.09
2023-01-09T23:44:36.142Z,99315.84
2023-01-09T23:47:03.670Z,99311.56
2023-01-09T23:49:31.151Z,99315.84
2023-01-09T23:52:01.609Z,99317.66
2023-01-09T23:54:29.134Z,99325.38
2023-01-09T23:56:56.638Z,99323.22
2023-01-09T23:59:24.099Z,99326.03
